sensor_id;sensor_type;location;lat;lon;timestamp;noise_LAeq;noise_LA_min;noise_LA_max;noise_LA01;noise_LA95
69609;Laerm;56815;52.320;4.858;2023-04-29T00:00:03;33.19;31.17;35.81;;
69609;Laerm;56815;52.320;4.858;2023-04-29T00:00:16;43.96;31.61;57.98;;
69609;Laerm;56815;52.320;4.858;2023-04-29T00:00:26;33.96;31.25;48.43;;
69609;Laerm;56815;52.320;4.858;2023-04-29T00:00:37;32.65;30.85;38.89;;
69609;Laerm;56815;52.320;4.858;2023-04-29T00:00:47;33.20;30.75;38.49;;
69609;Laerm;56815;52.320;4.858;2023-04-29T00:00:57;34.07;32.15;36.32;;
69609;Laerm;56815;52.320;4.858;2023-04-29T00:01:08;33.96;31.68;36.86;;
69609;Laerm;56815;52.320;4.858;2023-04-29T00:01:18;34.00;32.05;36.94;;
69609;Laerm;56815;52.320;4.858;2023-04-29T00:01:30;34.64;32.33;38.03;;
69609;Laerm;56815;52.320;4.858;2023-04-29T00:01:40;34.52;32.30;38.22;;
69609;Laerm;56815;52.320;4.858;2023-04-29T00:01:50;33.16;31.00;38.69;;
69609;Laerm;56815;52.320;4.858;2023-04-29T00:02:00;33.30;30.66;37.80;;
69609;Laerm;56815;52.320;4.858;2023-04-29T00:02:11;32.87;30.81;36.63;;
69609;Laerm;56815;52.320;4.858;2023-04-29T00:02:21;33.50;31.45;37.81;;
69609;Laerm;56815;52.320;4.858;2023-04-29T00:02:32;34.59;32.38;38.81;;
69609;Laerm;56815;52.320;4.858;2023-04-29T00:02:42;34.44;31.63;39.37;;
69609;Laerm;56815;52.320;4.858;2023-04-29T00:02:52;33.70;31.99;36.25;;
69609;Laerm;56815;52.320;4.858;2023-04-29T00:03:06;33.25;31.03;35.69;;
69609;Laerm;56815;52.320;4.858;2023-04-29T00:03:17;33.72;31.30;37.35;;
69609;Laerm;56815;52.320;4.858;2023-04-29T00:03:28;33.90;31.29;40.06;;
69609;Laerm;56815;52.320;4.858;2023-04-29T00:03:41;34.22;32.09;38.27;;
69609;Laerm;56815;52.320;4.858;2023-04-29T00:03:52;34.40;32.19;37.85;;
69609;Laerm;56815;52.320;4.858;2023-04-29T00:04:02;35.02;31.94;37.26;;
69609;Laerm;56815;52.320;4.858;2023-04-29T00:04:12;34.35;32.23;40.06;;
69609;Laerm;56815;52.320;4.858;2023-04-29T00:04:26;33.97;31.68;38.03;;
69609;Laerm;56815;52.320;4.858;2023-04-29T00:04:36;32.95;31.22;35.19;;
69609;Laerm;56815;52.320;4.858;2023-04-29T00:04:46;33.61;31.58;36.06;;
69609;Laerm;56815;52.320;4.858;2023-04-29T00:04:56;33.53;31.51;35.82;;
69609;Laerm;56815;52.320;4.858;2023-04-29T00:05:07;33.82;31.64;41.25;;
69609;Laerm;56815;52.320;4.858;2023-04-29T00:05:17;33.60;31.37;36.87;;
69609;Laerm;56815;52.320;4.858;2023-04-29T00:05:27;33.92;31.63;39.02;;
69609;Laerm;56815;52.320;4.858;2023-04-29T00:05:38;34.32;32.47;36.56;;
69609;Laerm;56815;52.320;4.858;2023-04-29T00:05:48;34.06;31.52;41.94;;
69609;Laerm;56815;52.320;4.858;2023-04-29T00:05:59;33.91;31.84;36.14;;
69609;Laerm;56815;52.320;4.858;2023-04-29T00:06:09;35.47;32.75;38.26;;
69609;Laerm;56815;52.320;4.858;2023-04-29T00:06:20;34.38;31.91;36.92;;
69609;Laerm;56815;52.320;4.858;2023-04-29T00:06:31;33.99;31.96;36.27;;
69609;Laerm;56815;52.320;4.858;2023-04-29T00:06:41;34.09;31.98;36.48;;
69609;Laerm;56815;52.320;4.858;2023-04-29T00:06:51;34.93;32.63;40.09;;
69609;Laerm;56815;52.320;4.858;2023-04-29T00:07:02;34.46;32.49;36.95;;
69609;Laerm;56815;52.320;4.858;2023-04-29T00:07:12;35.89;33.20;39.38;;
69609;Laerm;56815;52.320;4.858;2023-04-29T00:07:24;35.35;33.23;39.93;;
69609;Laerm;56815;52.320;4.858;2023-04-29T00:07:35;34.33;32.04;39.48;;
69609;Laerm;56815;52.320;4.858;2023-04-29T00:07:45;33.48;31.60;35.60;;
69609;Laerm;56815;52.320;4.858;2023-04-29T00:07:55;32.50;30.96;36.08;;
69609;Laerm;56815;52.320;4.858;2023-04-29T00:08:06;33.01;30.70;36.88;;
69609;Laerm;56815;52.320;4.858;2023-04-29T00:08:17;31.85;29.93;37.76;;
69609;Laerm;56815;52.320;4.858;2023-04-29T00:08:27;32.00;30.24;37.21;;
69609;Laerm;56815;52.320;4.858;2023-04-29T00:08:37;32.61;30.94;35.87;;
69609;Laerm;56815;52.320;4.858;2023-04-29T00:08:48;33.10;30.92;35.89;;
69609;Laerm;56815;52.320;4.858;2023-04-29T00:08:58;32.74;30.93;37.42;;
69609;Laerm;56815;52.320;4.858;2023-04-29T00:09:09;32.78;31.16;34.77;;
69609;Laerm;56815;52.320;4.858;2023-04-29T00:09:20;33.51;31.15;37.13;;
69609;Laerm;56815;52.320;4.858;2023-04-29T00:09:32;34.71;32.16;47.68;;
69609;Laerm;56815;52.320;4.858;2023-04-29T00:09:43;33.64;31.27;38.70;;
69609;Laerm;56815;52.320;4.858;2023-04-29T00:09:53;32.57;30.98;34.53;;
69609;Laerm;56815;52.320;4.858;2023-04-29T00:10:03;33.00;30.82;37.93;;
69609;Laerm;56815;52.320;4.858;2023-04-29T00:10:14;32.68;30.76;34.85;;
69609;Laerm;56815;52.320;4.858;2023-04-29T00:10:24;32.99;30.95;35.31;;
69609;Laerm;56815;52.320;4.858;2023-04-29T00:10:34;31.93;30.46;40.40;;
69609;Laerm;56815;52.320;4.858;2023-04-29T00:10:45;31.72;30.36;36.77;;
69609;Laerm;56815;52.320;4.858;2023-04-29T00:10:55;31.84;30.28;33.95;;
69609;Laerm;56815;52.320;4.858;2023-04-29T00:11:06;32.17;30.04;36.25;;
69609;Laerm;56815;52.320;4.858;2023-04-29T00:11:16;32.01;30.19;35.47;;
69609;Laerm;56815;52.320;4.858;2023-04-29T00:11:26;31.70;29.78;35.75;;
69609;Laerm;56815;52.320;4.858;2023-04-29T00:11:37;31.59;29.80;36.84;;
69609;Laerm;56815;52.320;4.858;2023-04-29T00:11:47;31.96;30.26;37.22;;
69609;Laerm;56815;52.320;4.858;2023-04-29T00:11:58;32.94;30.15;39.03;;
69609;Laerm;56815;52.320;4.858;2023-04-29T00:12:10;37.97;30.70;49.30;;
69609;Laerm;56815;52.320;4.858;2023-04-29T00:12:21;39.14;33.60;48.49;;
69609;Laerm;56815;52.320;4.858;2023-04-29T00:12:31;38.75;33.38;44.40;;
69609;Laerm;56815;52.320;4.858;2023-04-29T00:12:42;40.34;35.38;45.52;;
69609;Laerm;56815;52.320;4.858;2023-04-29T00:12:52;41.53;34.98;48.77;;
69609;Laerm;56815;52.320;4.858;2023-04-29T00:13:03;40.22;33.06;45.91;;
69609;Laerm;56815;52.320;4.858;2023-04-29T00:13:13;34.46;31.90;39.81;;
69609;Laerm;56815;52.320;4.858;2023-04-29T00:13:23;32.88;30.54;37.00;;
69609;Laerm;56815;52.320;4.858;2023-04-29T00:13:35;32.31;30.41;37.66;;
69609;Laerm;56815;52.320;4.858;2023-04-29T00:13:45;32.68;30.68;35.92;;
69609;Laerm;56815;52.320;4.858;2023-04-29T00:13:55;32.21;30.45;36.71;;
69609;Laerm;56815;52.320;4.858;2023-04-29T00:14:05;34.02;31.06;45.05;;
69609;Laerm;56815;52.320;4.858;2023-04-29T00:14:16;33.56;31.36;39.54;;
69609;Laerm;56815;52.320;4.858;2023-04-29T00:14:26;33.25;31.11;37.83;;
69609;Laerm;56815;52.320;4.858;2023-04-29T00:14:36;32.99;30.82;41.55;;
69609;Laerm;56815;52.320;4.858;2023-04-29T00:14:47;31.91;30.22;33.56;;
69609;Laerm;56815;52.320;4.858;2023-04-29T00:14:57;32.31;30.71;37.57;;
69609;Laerm;56815;52.320;4.858;2023-04-29T00:15:08;33.10;31.10;37.70;;
69609;Laerm;56815;52.320;4.858;2023-04-29T00:15:19;32.70;30.87;38.63;;
69609;Laerm;56815;52.320;4.858;2023-04-29T00:15:29;33.30;31.09;38.83;;
69609;Laerm;56815;52.320;4.858;2023-04-29T00:15:40;32.92;30.90;37.14;;
69609;Laerm;56815;52.320;4.858;2023-04-29T00:15:50;32.42;30.30;34.99;;
69609;Laerm;56815;52.320;4.858;2023-04-29T00:16:00;32.51;30.35;42.13;;
69609;Laerm;56815;52.320;4.858;2023-04-29T00:16:11;32.90;30.60;36.45;;
69609;Laerm;56815;52.320;4.858;2023-04-29T00:16:22;32.38;30.03;36.16;;
69609;Laerm;56815;52.320;4.858;2023-04-29T00:16:32;31.78;29.42;38.25;;
69609;Laerm;56815;52.320;4.858;2023-04-29T00:16:42;31.53;29.82;37.97;;
69609;Laerm;56815;52.320;4.858;2023-04-29T00:16:53;31.97;30.02;39.61;;
69609;Laerm;56815;52.320;4.858;2023-04-29T00:17:03;32.58;30.43;42.98;;
69609;Laerm;56815;52.320;4.858;2023-04-29T00:17:13;32.78;30.77;35.53;;
69609;Laerm;56815;52.320;4.858;2023-04-29T00:17:25;33.41;31.60;40.66;;
69609;Laerm;56815;52.320;4.858;2023-04-29T00:17:35;32.46;30.42;36.11;;
69609;Laerm;56815;52.320;4.858;2023-04-29T00:17:45;32.30;30.38;35.85;;
69609;Laerm;56815;52.320;4.858;2023-04-29T00:17:56;33.14;30.74;40.62;;
69609;Laerm;56815;52.320;4.858;2023-04-29T00:18:06;33.83;31.27;36.96;;
69609;Laerm;56815;52.320;4.858;2023-04-29T00:18:17;33.02;31.08;37.63;;
69609;Laerm;56815;52.320;4.858;2023-04-29T00:18:28;33.63;31.30;38.21;;
69609;Laerm;56815;52.320;4.858;2023-04-29T00:18:38;33.57;31.55;37.60;;
69609;Laerm;56815;52.320;4.858;2023-04-29T00:18:48;33.48;31.39;43.06;;
69609;Laerm;56815;52.320;4.858;2023-04-29T00:18:59;33.58;31.36;36.11;;
69609;Laerm;56815;52.320;4.858;2023-04-29T00:19:09;33.29;31.32;37.08;;
69609;Laerm;56815;52.320;4.858;2023-04-29T00:19:19;33.71;30.57;48.70;;
69609;Laerm;56815;52.320;4.858;2023-04-29T00:19:29;33.26;31.26;37.88;;
69609;Laerm;56815;52.320;4.858;2023-04-29T00:19:40;32.61;30.81;38.29;;
69609;Laerm;56815;52.320;4.858;2023-04-29T00:19:50;32.45;30.56;34.52;;
69609;Laerm;56815;52.320;4.858;2023-04-29T00:20:01;32.23;30.49;34.57;;
69609;Laerm;56815;52.320;4.858;2023-04-29T00:20:11;32.78;30.50;42.05;;
69609;Laerm;56815;52.320;4.858;2023-04-29T00:20:22;32.82;30.74;37.30;;
69609;Laerm;56815;52.320;4.858;2023-04-29T00:20:32;33.50;31.37;35.23;;
69609;Laerm;56815;52.320;4.858;2023-04-29T00:20:42;33.46;31.55;36.89;;
69609;Laerm;56815;52.320;4.858;2023-04-29T00:20:52;35.13;32.24;39.28;;
69609;Laerm;56815;52.320;4.858;2023-04-29T00:21:03;35.10;32.92;39.79;;
69609;Laerm;56815;52.320;4.858;2023-04-29T00:21:16;34.75;32.45;38.37;;
69609;Laerm;56815;52.320;4.858;2023-04-29T00:21:26;34.94;32.89;37.10;;
69609;Laerm;56815;52.320;4.858;2023-04-29T00:21:37;34.69;32.34;39.13;;
69609;Laerm;56815;52.320;4.858;2023-04-29T00:21:48;34.30;31.98;36.50;;
69609;Laerm;56815;52.320;4.858;2023-04-29T00:21:58;34.90;31.83;38.94;;
69609;Laerm;56815;52.320;4.858;2023-04-29T00:22:08;34.14;32.12;39.17;;
69609;Laerm;56815;52.320;4.858;2023-04-29T00:22:18;34.15;32.35;37.30;;
69609;Laerm;56815;52.320;4.858;2023-04-29T00:22:31;35.12;32.43;39.98;;
69609;Laerm;56815;52.320;4.858;2023-04-29T00:22:41;34.70;32.72;40.73;;
69609;Laerm;56815;52.320;4.858;2023-04-29T00:22:51;34.73;32.92;38.40;;
69609;Laerm;56815;52.320;4.858;2023-04-29T00:23:02;34.31;32.24;39.44;;
69609;Laerm;56815;52.320;4.858;2023-04-29T00:23:12;33.72;31.53;36.29;;
69609;Laerm;56815;52.320;4.858;2023-04-29T00:23:22;34.43;32.22;39.41;;
69609;Laerm;56815;52.320;4.858;2023-04-29T00:23:33;34.38;32.44;38.63;;
69609;Laerm;56815;52.320;4.858;2023-04-29T00:23:43;34.11;31.84;38.72;;
69609;Laerm;56815;52.320;4.858;2023-04-29T00:23:53;34.02;32.09;36.75;;
69609;Laerm;56815;52.320;4.858;2023-04-29T00:24:04;33.78;31.70;36.54;;
69609;Laerm;56815;52.320;4.858;2023-04-29T00:24:15;34.04;32.22;36.67;;
69609;Laerm;56815;52.320;4.858;2023-04-29T00:24:25;34.38;32.08;39.05;;
69609;Laerm;56815;52.320;4.858;2023-04-29T00:24:36;34.76;31.95;37.04;;
69609;Laerm;56815;52.320;4.858;2023-04-29T00:24:46;35.74;33.03;41.55;;
69609;Laerm;56815;52.320;4.858;2023-04-29T00:24:56;35.47;33.32;37.94;;
69609;Laerm;56815;52.320;4.858;2023-04-29T00:25:07;35.01;33.02;45.55;;
69609;Laerm;56815;52.320;4.858;2023-04-29T00:25:17;34.59;32.44;41.06;;
69609;Laerm;56815;52.320;4.858;2023-04-29T00:25:27;35.38;31.81;46.28;;
69609;Laerm;56815;52.320;4.858;2023-04-29T00:25:38;33.97;31.76;38.32;;
69609;Laerm;56815;52.320;4.858;2023-04-29T00:25:48;34.55;31.90;38.94;;
69609;Laerm;56815;52.320;4.858;2023-04-29T00:25:59;34.19;31.53;42.55;;
69609;Laerm;56815;52.320;4.858;2023-04-29T00:26:09;34.21;31.77;37.75;;
69609;Laerm;56815;52.320;4.858;2023-04-29T00:26:20;33.45;31.37;36.15;;
69609;Laerm;56815;52.320;4.858;2023-04-29T00:26:31;33.65;30.44;41.80;;
69609;Laerm;56815;52.320;4.858;2023-04-29T00:26:41;34.38;31.21;40.32;;
69609;Laerm;56815;52.320;4.858;2023-04-29T00:26:51;38.87;31.22;48.02;;
69609;Laerm;56815;52.320;4.858;2023-04-29T00:27:01;33.24;31.11;39.40;;
69609;Laerm;56815;52.320;4.858;2023-04-29T00:27:12;34.39;31.79;38.25;;
69609;Laerm;56815;52.320;4.858;2023-04-29T00:27:22;34.25;32.15;38.28;;
69609;Laerm;56815;52.320;4.858;2023-04-29T00:27:32;34.25;32.15;36.31;;
69609;Laerm;56815;52.320;4.858;2023-04-29T00:27:43;33.82;31.92;39.58;;
69609;Laerm;56815;52.320;4.858;2023-04-29T00:27:53;33.58;31.90;35.75;;
69609;Laerm;56815;52.320;4.858;2023-04-29T00:28:06;34.30;32.27;36.83;;
69609;Laerm;56815;52.320;4.858;2023-04-29T00:28:16;34.27;31.76;39.08;;
69609;Laerm;56815;52.320;4.858;2023-04-29T00:28:27;34.04;31.60;39.67;;
69609;Laerm;56815;52.320;4.858;2023-04-29T00:28:37;34.92;31.93;40.81;;
69609;Laerm;56815;52.320;4.858;2023-04-29T00:28:47;37.48;32.83;42.76;;
69609;Laerm;56815;52.320;4.858;2023-04-29T00:28:57;34.92;32.49;37.14;;
69609;Laerm;56815;52.320;4.858;2023-04-29T00:29:08;34.89;32.38;43.62;;
69609;Laerm;56815;52.320;4.858;2023-04-29T00:29:18;37.47;31.58;48.47;;
69609;Laerm;56815;52.320;4.858;2023-04-29T00:29:29;34.53;32.22;41.84;;
69609;Laerm;56815;52.320;4.858;2023-04-29T00:29:39;34.58;32.05;38.77;;
69609;Laerm;56815;52.320;4.858;2023-04-29T00:29:50;34.47;32.02;39.33;;
69609;Laerm;56815;52.320;4.858;2023-04-29T00:30:00;34.75;32.51;38.27;;
69609;Laerm;56815;52.320;4.858;2023-04-29T00:30:10;34.23;31.56;37.38;;
69609;Laerm;56815;52.320;4.858;2023-04-29T00:30:21;36.43;32.50;46.58;;
69609;Laerm;56815;52.320;4.858;2023-04-29T00:30:31;34.45;31.98;41.60;;
69609;Laerm;56815;52.320;4.858;2023-04-29T00:30:42;33.73;31.48;37.72;;
69609;Laerm;56815;52.320;4.858;2023-04-29T00:30:52;33.70;31.66;36.08;;
69609;Laerm;56815;52.320;4.858;2023-04-29T00:31:03;34.21;32.01;37.51;;
69609;Laerm;56815;52.320;4.858;2023-04-29T00:31:13;33.99;31.97;36.87;;
69609;Laerm;56815;52.320;4.858;2023-04-29T00:31:23;33.71;32.02;35.72;;
69609;Laerm;56815;52.320;4.858;2023-04-29T00:31:34;33.44;30.98;40.13;;
69609;Laerm;56815;52.320;4.858;2023-04-29T00:31:46;33.58;31.34;39.36;;
69609;Laerm;56815;52.320;4.858;2023-04-29T00:31:56;33.42;31.80;35.45;;
69609;Laerm;56815;52.320;4.858;2023-04-29T00:32:06;33.48;31.13;38.04;;
69609;Laerm;56815;52.320;4.858;2023-04-29T00:32:17;34.42;31.74;39.21;;
69609;Laerm;56815;52.320;4.858;2023-04-29T00:32:27;34.50;32.21;37.79;;
69609;Laerm;56815;52.320;4.858;2023-04-29T00:32:37;32.92;30.92;39.31;;
69609;Laerm;56815;52.320;4.858;2023-04-29T00:32:47;33.29;31.07;41.06;;
69609;Laerm;56815;52.320;4.858;2023-04-29T00:32:58;33.24;31.44;35.96;;
69609;Laerm;56815;52.320;4.858;2023-04-29T00:33:09;33.91;31.73;39.84;;
69609;Laerm;56815;52.320;4.858;2023-04-29T00:33:19;33.69;31.48;37.66;;
69609;Laerm;56815;52.320;4.858;2023-04-29T00:33:29;33.70;31.91;38.46;;
69609;Laerm;56815;52.320;4.858;2023-04-29T00:33:42;33.90;31.94;37.71;;
69609;Laerm;56815;52.320;4.858;2023-04-29T00:33:52;33.38;31.69;36.72;;
69609;Laerm;56815;52.320;4.858;2023-04-29T00:34:02;34.01;31.89;37.59;;
69609;Laerm;56815;52.320;4.858;2023-04-29T00:34:13;34.07;31.95;39.46;;
69609;Laerm;56815;52.320;4.858;2023-04-29T00:34:23;34.83;32.51;38.77;;
69609;Laerm;56815;52.320;4.858;2023-04-29T00:34:33;34.03;32.33;36.20;;
69609;Laerm;56815;52.320;4.858;2023-04-29T00:34:44;35.30;33.24;38.82;;
69609;Laerm;56815;52.320;4.858;2023-04-29T00:34:54;35.17;33.05;37.65;;
69609;Laerm;56815;52.320;4.858;2023-04-29T00:35:04;35.22;33.08;38.61;;
69609;Laerm;56815;52.320;4.858;2023-04-29T00:35:15;34.95;32.81;37.36;;
69609;Laerm;56815;52.320;4.858;2023-04-29T00:35:25;34.58;32.72;39.13;;
69609;Laerm;56815;52.320;4.858;2023-04-29T00:35:36;34.00;31.81;38.58;;
69609;Laerm;56815;52.320;4.858;2023-04-29T00:35:46;34.47;32.51;37.04;;
69609;Laerm;56815;52.320;4.858;2023-04-29T00:35:56;35.32;33.00;38.24;;
69609;Laerm;56815;52.320;4.858;2023-04-29T00:36:07;35.76;33.71;37.63;;
69609;Laerm;56815;52.320;4.858;2023-04-29T00:36:17;35.71;33.63;38.75;;
69609;Laerm;56815;52.320;4.858;2023-04-29T00:36:28;35.94;33.51;39.80;;
69609;Laerm;56815;52.320;4.858;2023-04-29T00:36:38;35.80;33.35;38.44;;
69609;Laerm;56815;52.320;4.858;2023-04-29T00:36:48;36.05;33.64;39.84;;
69609;Laerm;56815;52.320;4.858;2023-04-29T00:36:59;37.02;33.89;40.98;;
69609;Laerm;56815;52.320;4.858;2023-04-29T00:37:09;38.01;34.63;41.53;;
69609;Laerm;56815;52.320;4.858;2023-04-29T00:37:20;35.17;32.82;37.76;;
69609;Laerm;56815;52.320;4.858;2023-04-29T00:37:31;34.56;32.68;37.33;;
69609;Laerm;56815;52.320;4.858;2023-04-29T00:37:41;35.03;31.91;38.80;;
69609;Laerm;56815;52.320;4.858;2023-04-29T00:37:52;33.80;32.18;37.54;;
69609;Laerm;56815;52.320;4.858;2023-04-29T00:38:02;33.96;31.96;36.65;;
69609;Laerm;56815;52.320;4.858;2023-04-29T00:38:12;34.10;31.83;39.49;;
69609;Laerm;56815;52.320;4.858;2023-04-29T00:38:23;34.43;32.81;37.83;;
69609;Laerm;56815;52.320;4.858;2023-04-29T00:38:33;34.70;32.07;38.44;;
69609;Laerm;56815;52.320;4.858;2023-04-29T00:38:44;34.12;31.88;39.55;;
69609;Laerm;56815;52.320;4.858;2023-04-29T00:38:54;34.38;32.19;39.26;;
69609;Laerm;56815;52.320;4.858;2023-04-29T00:39:04;34.63;32.76;37.68;;
69609;Laerm;56815;52.320;4.858;2023-04-29T00:39:14;34.57;31.83;40.56;;
69609;Laerm;56815;52.320;4.858;2023-04-29T00:39:25;34.46;32.53;38.44;;
69609;Laerm;56815;52.320;4.858;2023-04-29T00:39:35;34.26;32.09;36.36;;
69609;Laerm;56815;52.320;4.858;2023-04-29T00:39:45;34.75;32.33;40.07;;
69609;Laerm;56815;52.320;4.858;2023-04-29T00:39:55;34.01;31.59;38.97;;
69609;Laerm;56815;52.320;4.858;2023-04-29T00:40:06;34.91;32.85;37.58;;
69609;Laerm;56815;52.320;4.858;2023-04-29T00:40:17;35.95;33.33;45.19;;
69609;Laerm;56815;52.320;4.858;2023-04-29T00:40:28;35.31;32.47;38.85;;
69609;Laerm;56815;52.320;4.858;2023-04-29T00:40:38;35.30;32.71;41.68;;
69609;Laerm;56815;52.320;4.858;2023-04-29T00:40:49;35.42;33.18;38.29;;
69609;Laerm;56815;52.320;4.858;2023-04-29T00:40:59;36.08;33.55;38.00;;
69609;Laerm;56815;52.320;4.858;2023-04-29T00:41:10;35.62;32.60;38.70;;
69609;Laerm;56815;52.320;4.858;2023-04-29T00:41:20;35.04;32.99;36.79;;
69609;Laerm;56815;52.320;4.858;2023-04-29T00:41:33;34.88;32.97;36.54;;
69609;Laerm;56815;52.320;4.858;2023-04-29T00:41:43;35.47;33.19;39.81;;
69609;Laerm;56815;52.320;4.858;2023-04-29T00:41:53;35.27;33.23;39.32;;
69609;Laerm;56815;52.320;4.858;2023-04-29T00:42:04;35.29;33.53;37.34;;
69609;Laerm;56815;52.320;4.858;2023-04-29T00:42:14;35.05;32.71;37.85;;
69609;Laerm;56815;52.320;4.858;2023-04-29T00:42:24;34.45;32.22;37.11;;
69609;Laerm;56815;52.320;4.858;2023-04-29T00:42:35;34.20;32.11;36.47;;
69609;Laerm;56815;52.320;4.858;2023-04-29T00:42:45;34.57;32.76;37.26;;
69609;Laerm;56815;52.320;4.858;2023-04-29T00:42:55;34.08;32.03;36.74;;
69609;Laerm;56815;52.320;4.858;2023-04-29T00:43:06;33.66;31.51;35.62;;
69609;Laerm;56815;52.320;4.858;2023-04-29T00:43:16;33.44;31.18;38.03;;
69609;Laerm;56815;52.320;4.858;2023-04-29T00:43:26;33.21;31.24;35.40;;
69609;Laerm;56815;52.320;4.858;2023-04-29T00:43:37;33.47;31.82;35.30;;
69609;Laerm;56815;52.320;4.858;2023-04-29T00:43:47;34.46;31.85;44.80;;
69609;Laerm;56815;52.320;4.858;2023-04-29T00:43:57;35.40;31.99;46.20;;
69609;Laerm;56815;52.320;4.858;2023-04-29T00:44:07;35.84;33.35;40.67;;
69609;Laerm;56815;52.320;4.858;2023-04-29T00:44:19;35.11;33.15;38.92;;
69609;Laerm;56815;52.320;4.858;2023-04-29T00:44:29;34.95;32.52;38.18;;
69609;Laerm;56815;52.320;4.858;2023-04-29T00:44:39;34.84;32.64;36.95;;
69609;Laerm;56815;52.320;4.858;2023-04-29T00:44:49;34.82;32.92;37.90;;
69609;Laerm;56815;52.320;4.858;2023-04-29T00:45:00;34.22;32.23;38.70;;
69609;Laerm;56815;52.320;4.858;2023-04-29T00:45:11;34.48;31.72;47.82;;
69609;Laerm;56815;52.320;4.858;2023-04-29T00:45:21;34.32;32.26;37.04;;
69609;Laerm;56815;52.320;4.858;2023-04-29T00:45:32;34.13;31.81;36.53;;
69609;Laerm;56815;52.320;4.858;2023-04-29T00:45:43;34.36;31.77;38.51;;
69609;Laerm;56815;52.320;4.858;2023-04-29T00:45:55;33.69;31.86;38.42;;
69609;Laerm;56815;52.320;4.858;2023-04-29T00:46:06;34.31;32.34;37.45;;
69609;Laerm;56815;52.320;4.858;2023-04-29T00:46:17;33.69;32.06;36.89;;
69609;Laerm;56815;52.320;4.858;2023-04-29T00:46:27;34.99;32.01;38.46;;
69609;Laerm;56815;52.320;4.858;2023-04-29T00:46:37;33.46;31.53;36.07;;
69609;Laerm;56815;52.320;4.858;2023-04-29T00:46:48;32.88;31.05;37.06;;
69609;Laerm;56815;52.320;4.858;2023-04-29T00:46:58;36.32;32.23;40.45;;
69609;Laerm;56815;52.320;4.858;2023-04-29T00:47:09;34.51;31.43;39.07;;
69609;Laerm;56815;52.320;4.858;2023-04-29T00:47:20;35.53;33.33;37.65;;
69609;Laerm;56815;52.320;4.858;2023-04-29T00:47:31;34.14;31.71;39.45;;
69609;Laerm;56815;52.320;4.858;2023-04-29T00:47:41;33.04;31.13;35.20;;
69609;Laerm;56815;52.320;4.858;2023-04-29T00:47:51;33.37;31.13;37.42;;
69609;Laerm;56815;52.320;4.858;2023-04-29T00:48:02;32.33;30.64;34.32;;
69609;Laerm;56815;52.320;4.858;2023-04-29T00:48:13;32.28;30.65;34.59;;
69609;Laerm;56815;52.320;4.858;2023-04-29T00:48:26;32.18;29.94;38.20;;
69609;Laerm;56815;52.320;4.858;2023-04-29T00:48:36;32.21;30.24;34.53;;
69609;Laerm;56815;52.320;4.858;2023-04-29T00:48:47;32.00;30.36;33.89;;
69609;Laerm;56815;52.320;4.858;2023-04-29T00:48:57;32.56;30.34;35.02;;
69609;Laerm;56815;52.320;4.858;2023-04-29T00:49:07;32.11;30.31;35.59;;
69609;Laerm;56815;52.320;4.858;2023-04-29T00:49:18;32.51;30.50;36.81;;
69609;Laerm;56815;52.320;4.858;2023-04-29T00:49:29;32.04;30.09;36.08;;
69609;Laerm;56815;52.320;4.858;2023-04-29T00:49:40;32.70;30.79;36.81;;
69609;Laerm;56815;52.320;4.858;2023-04-29T00:49:50;32.65;30.65;35.79;;
69609;Laerm;56815;52.320;4.858;2023-04-29T00:50:01;32.30;30.70;38.84;;
69609;Laerm;56815;52.320;4.858;2023-04-29T00:50:11;32.00;30.45;36.67;;
69609;Laerm;56815;52.320;4.858;2023-04-29T00:50:22;32.22;30.43;34.84;;
69609;Laerm;56815;52.320;4.858;2023-04-29T00:50:32;32.37;30.58;36.53;;
69609;Laerm;56815;52.320;4.858;2023-04-29T00:50:43;32.00;30.20;35.74;;
69609;Laerm;56815;52.320;4.858;2023-04-29T00:50:53;31.95;30.33;35.65;;
69609;Laerm;56815;52.320;4.858;2023-04-29T00:51:03;32.42;30.49;35.55;;
69609;Laerm;56815;52.320;4.858;2023-04-29T00:51:15;31.87;30.09;36.92;;
69609;Laerm;56815;52.320;4.858;2023-04-29T00:51:26;31.75;29.97;34.15;;
69609;Laerm;56815;52.320;4.858;2023-04-29T00:51:37;31.32;29.86;35.72;;
69609;Laerm;56815;52.320;4.858;2023-04-29T00:51:48;31.35;29.55;36.12;;
69609;Laerm;56815;52.320;4.858;2023-04-29T00:51:59;32.19;30.38;36.02;;
69609;Laerm;56815;52.320;4.858;2023-04-29T00:52:09;32.15;30.27;34.12;;
69609;Laerm;56815;52.320;4.858;2023-04-29T00:52:20;31.88;29.85;40.76;;
69609;Laerm;56815;52.320;4.858;2023-04-29T00:52:32;31.78;30.13;35.75;;
69609;Laerm;56815;52.320;4.858;2023-04-29T00:52:43;32.78;30.55;37.98;;
69609;Laerm;56815;52.320;4.858;2023-04-29T00:52:54;32.45;29.94;35.71;;
69609;Laerm;56815;52.320;4.858;2023-04-29T00:53:04;31.50;29.65;32.91;;
69609;Laerm;56815;52.320;4.858;2023-04-29T00:53:14;31.14;29.39;32.92;;
69609;Laerm;56815;52.320;4.858;2023-04-29T00:53:25;31.19;29.76;33.24;;
69609;Laerm;56815;52.320;4.858;2023-04-29T00:53:36;31.12;29.13;36.75;;
69609;Laerm;56815;52.320;4.858;2023-04-29T00:53:47;31.30;29.88;35.04;;
69609;Laerm;56815;52.320;4.858;2023-04-29T00:53:58;31.47;29.86;33.21;;
69609;Laerm;56815;52.320;4.858;2023-04-29T00:54:08;31.77;29.82;36.98;;
69609;Laerm;56815;52.320;4.858;2023-04-29T00:54:19;32.11;30.69;37.90;;
69609;Laerm;56815;52.320;4.858;2023-04-29T00:54:30;31.96;29.85;38.04;;
69609;Laerm;56815;52.320;4.858;2023-04-29T00:54:40;32.35;29.84;37.15;;
69609;Laerm;56815;52.320;4.858;2023-04-29T00:54:50;31.62;30.13;33.10;;
69609;Laerm;56815;52.320;4.858;2023-04-29T00:55:01;32.04;29.72;40.14;;
69609;Laerm;56815;52.320;4.858;2023-04-29T00:55:12;31.96;30.20;36.52;;
69609;Laerm;56815;52.320;4.858;2023-04-29T00:55:23;31.27;29.75;32.76;;
69609;Laerm;56815;52.320;4.858;2023-04-29T00:55:35;31.64;29.71;38.78;;
69609;Laerm;56815;52.320;4.858;2023-04-29T00:55:46;31.10;29.51;33.39;;
69609;Laerm;56815;52.320;4.858;2023-04-29T00:55:57;30.14;28.59;35.10;;
69609;Laerm;56815;52.320;4.858;2023-04-29T00:56:09;29.96;28.61;36.29;;
69609;Laerm;56815;52.320;4.858;2023-04-29T00:56:20;30.02;28.66;33.03;;
69609;Laerm;56815;52.320;4.858;2023-04-29T00:56:31;30.09;28.67;32.42;;
69609;Laerm;56815;52.320;4.858;2023-04-29T00:56:43;31.96;29.38;35.25;;
69609;Laerm;56815;52.320;4.858;2023-04-29T00:56:54;31.06;29.49;33.61;;
69609;Laerm;56815;52.320;4.858;2023-04-29T00:57:05;31.20;29.39;35.98;;
69609;Laerm;56815;52.320;4.858;2023-04-29T00:57:16;31.26;28.86;33.88;;
69609;Laerm;56815;52.320;4.858;2023-04-29T00:57:27;29.83;27.97;34.93;;
69609;Laerm;56815;52.320;4.858;2023-04-29T00:57:40;29.63;28.36;34.54;;
69609;Laerm;56815;52.320;4.858;2023-04-29T00:57:51;29.50;28.17;34.25;;
69609;Laerm;56815;52.320;4.858;2023-04-29T00:58:02;29.23;28.07;30.42;;
69609;Laerm;56815;52.320;4.858;2023-04-29T00:58:13;29.30;28.19;36.23;;
69609;Laerm;56815;52.320;4.858;2023-04-29T00:58:23;29.12;28.08;34.03;;
69609;Laerm;56815;52.320;4.858;2023-04-29T00:58:42;29.39;27.98;37.11;;
69609;Laerm;56815;52.320;4.858;2023-04-29T00:58:58;30.05;28.33;37.24;;
69609;Laerm;56815;52.320;4.858;2023-04-29T00:59:09;30.06;29.05;31.39;;
69609;Laerm;56815;52.320;4.858;2023-04-29T00:59:20;30.06;28.74;32.01;;
69609;Laerm;56815;52.320;4.858;2023-04-29T00:59:31;36.75;28.77;49.30;;